Impacts METAR Board
IDs:

KMCO - Orlando Intl, FL, US

Updated at: 1000 UTC 28 Sep 2021
Potential Impact None Slight Moderate High
Time 27/22Z 27/23Z 28/00Z 28/01Z 28/02Z 28/03Z 28/04Z 28/05Z 28/06Z 28/07Z 28/08Z 28/09Z 28/10Z
Temp84 81 79 77 76 75 74 74 74 72 71 71 71
Dewpt65 64 64 64 63 64 64 64 64 64 64 66 65
Altim30.05 30.06 30.07 30.08 30.09 30.09 30.08 30.07 30.05 30.04 30.03 30.03 30.04
VIS10 10 10 10 10 10 10 10 10 10 10 10 10
CIG-- -- -- -- -- -- -- -- -- -- -- -- --
CoverFEWFEWFEWCLRCLRCLRCLRCLRCLRCLRCLRCLRCLR
FltCatVFRVFRVFRVFRVFRVFRVFRVFRVFRVFRVFRVFRVFR
WX--------------------------
WDir708080809090808000000
WSpd12 8 6 5 6 5 4 3 0 0 0 0 0
WGst-- -- -- -- -- -- -- -- -- -- -- -- --
Raw hourly METARs
KMCO 272153Z 07012KT 10SM FEW055 FEW110 29/18 A3005 RMK AO2 SLP173 T02890183
KMCO 272253Z 08008KT 10SM FEW055 FEW110 FEW250 27/18 A3006 RMK AO2 SLP176 T02720178
KMCO 272353Z 08006KT 10SM FEW055 FEW110 26/18 A3007 RMK AO2 SLP180 T02610178 10317 20261 53011
KMCO 280053Z 08005KT 10SM CLR 25/18 A3008 RMK AO2 SLP185 T02500178
KMCO 280153Z 09006KT 10SM CLR 24/17 A3009 RMK AO2 SLP188 T02440172
KMCO 280253Z 09005KT 10SM CLR 24/18 A3009 RMK AO2 SLP187 T02390178 50006
KMCO 280353Z 08004KT 10SM CLR 23/18 A3008 RMK AO2 SLP185 T02330178
KMCO 280453Z 08003KT 10SM CLR 23/18 A3007 RMK AO2 SLP180 T02330178 403170211
KMCO 280553Z 00000KT 10SM CLR 23/18 A3005 RMK AO2 SLP175 T02330178 10261 20228 58012
KMCO 280653Z 00000KT 10SM CLR 22/18 A3004 RMK AO2 SLP170 T02220178
KMCO 280753Z 00000KT 10SM CLR 22/18 A3003 RMK AO2 SLP166 T02170178
KMCO 280853Z 00000KT 10SM CLR 22/19 A3003 RMK AO2 SLP167 T02170189 55008
KMCO 280953Z 00000KT 10SM CLR 22/18 A3004 RMK AO2 SLP169 T02170183



Page loaded:  10:25 UTC  |   03:25 AM Pacific  |   04:25 AM Mountain  |   05:25 AM Central  |   06:25 AM Eastern

 

ADVISORIES

FORECASTS

FORECASTS

OBSERVATIONS

USER TOOLS

ABOUT US